New Stuyahok, Alaska
Current Conditions -  °F | °C
As of 12:56 AM on Sunday 26 Oct 2014 (Local Time) from PANW Reporting Station
Few Clouds Few Clouds  
Wind Chill: 27°   Ceiling: Unl
Heat Index: 27°   Visibility: 10mi
Dew Point: 24°   Wind: 0mph
Humidity: 88%   Direction: NA
Pressure: 29.88"   Gusts: NA
Location:  59.45°N, 157.31°W
Report Text: PANW 260856Z AUTO 00000KT 10SM FEW080 M03/M04 A2988 RMK AO2 TSNO 51008 T10271044 400051094 SLP099 $
Loading
Personal Weather Stations






























Interactive Weather Map
Tropical Storm Tracking
New forecast layout! Learn more

10-Day Weather Forecast

Advertisements
Track Severe Weather on mobile